Time;durP1;ratioP1;P1;durP2;ratioP2;P2;SDS_P1;SDS_P2;PMS_P1;PMS_P2;Temp;Humidity;BMP_temperature;BMP_pressure;BME280_temperature;BME280_humidity;BME280_pressure;Samples;Min_cycle;Max_cycle;Signal;HPM_P1;HPM_P2
2023/10/01 00:00:08;;;;;;;3.63;3.23;;;;;;;;;;5093609;28;20232;-83
2023/10/01 00:02:36;;;;;;;4.83;3.73;;;;;;;;;;5094046;28;20213;-83
2023/10/01 00:05:04;;;;;;;5.70;4.10;;;;;;;;;;5094012;28;20289;-84
2023/10/01 00:07:35;;;;;;;4.60;3.63;;;;;;;;;;5094538;28;20197;-83
2023/10/01 00:10:06;;;;;;;4.83;3.50;;;;;;;;;;5094308;28;20630;-83
2023/10/01 00:12:34;;;;;;;4.43;3.80;;;;;;;;;;5094643;28;20855;-83
2023/10/01 00:15:02;;;;;;;6.83;3.73;;;;;;;;;;5093748;28;20240;-83
2023/10/01 00:17:31;;;;;;;3.50;3.17;;;;;;;;;;5094323;28;20277;-83
2023/10/01 00:20:00;;;;;;;4.63;3.57;;;;;;;;;;5093592;28;20238;-83
2023/10/01 00:22:27;;;;;;;4.00;3.20;;;;;;;;;;5094302;28;20227;-83
2023/10/01 00:24:56;;;;;;;4.00;3.53;;;;;;;;;;5093639;28;20903;-82
2023/10/01 00:27:23;;;;;;;3.87;3.47;;;;;;;;;;5093911;28;20304;-83
2023/10/01 00:29:50;;;;;;;3.60;3.30;;;;;;;;;;5093406;28;20236;-83
2023/10/01 00:32:17;;;;;;;5.07;3.77;;;;;;;;;;5093723;28;20219;-83
2023/10/01 00:34:46;;;;;;;6.33;3.67;;;;;;;;;;5093322;28;20243;-83
2023/10/01 00:37:13;;;;;;;6.30;3.53;;;;;;;;;;5093841;28;20254;-83
2023/10/01 00:39:40;;;;;;;4.27;3.53;;;;;;;;;;5093281;28;20228;-83
2023/10/01 00:42:07;;;;;;;6.67;3.30;;;;;;;;;;5094025;28;20192;-83
2023/10/01 00:44:35;;;;;;;4.47;3.13;;;;;;;;;;5093305;28;20251;-83
2023/10/01 00:47:04;;;;;;;3.53;3.20;;;;;;;;;;5093695;28;20208;-84
2023/10/01 00:49:32;;;;;;;4.93;2.87;;;;;;;;;;5093001;28;20240;-83
2023/10/01 00:52:01;;;;;;;3.90;3.40;;;;;;;;;;5093011;28;20291;-83
2023/10/01 00:54:29;;;;;;;3.83;3.37;;;;;;;;;;5091485;28;20301;-83
2023/10/01 00:56:56;;;;;;;7.63;3.27;;;;;;;;;;5093248;28;20204;-83
2023/10/01 00:59:23;;;;;;;4.67;3.10;;;;;;;;;;5088981;28;20319;-84
2023/10/01 01:01:51;;;;;;;5.87;3.30;;;;;;;;;;5087676;28;20204;-83
2023/10/01 01:04:22;;;;;;;5.30;3.30;;;;;;;;;;5076161;28;20237;-84
2023/10/01 01:06:50;;;;;;;5.13;3.10;;;;;;;;;;5080469;28;20208;-83
2023/10/01 01:09:20;;;;;;;4.03;3.57;;;;;;;;;;5092684;28;20247;-84
2023/10/01 01:11:47;;;;;;;8.10;3.70;;;;;;;;;;5093902;28;20201;-84
2023/10/01 01:14:15;;;;;;;4.83;3.50;;;;;;;;;;5092913;28;20709;-83
2023/10/01 01:16:45;;;;;;;4.17;3.60;;;;;;;;;;5099362;28;20619;-82
2023/10/01 01:19:12;;;;;;;4.77;3.73;;;;;;;;;;5091877;28;20579;-84
2023/10/01 01:21:42;;;;;;;4.03;3.47;;;;;;;;;;5092913;28;20301;-84
2023/10/01 01:24:10;;;;;;;5.50;4.17;;;;;;;;;;5092865;28;20576;-83
2023/10/01 01:26:41;;;;;;;4.47;3.43;;;;;;;;;;5094419;28;20631;-83
2023/10/01 01:29:18;;;;;;;5.67;3.40;;;;;;;;;;5097156;28;20705;-83
2023/10/01 01:31:46;;;;;;;3.83;3.27;;;;;;;;;;5095602;28;20231;-84
2023/10/01 01:34:14;;;;;;;4.00;3.50;;;;;;;;;;5096777;28;20237;-83
2023/10/01 01:36:42;;;;;;;4.47;4.00;;;;;;;;;;5097244;28;20211;-83
2023/10/01 01:39:26;;;;;;;4.70;4.17;;;;;;;;;;5096893;28;20254;-83
2023/10/01 01:41:54;;;;;;;6.17;4.10;;;;;;;;;;5096416;28;20193;-83
2023/10/01 01:44:23;;;;;;;5.57;3.83;;;;;;;;;;5102133;28;20263;-83
2023/10/01 01:46:59;;;;;;;4.73;3.77;;;;;;;;;;5079286;28;20208;-83
2023/10/01 01:49:27;;;;;;;5.70;3.83;;;;;;;;;;5075919;28;20243;-83
2023/10/01 01:52:03;;;;;;;5.60;3.37;;;;;;;;;;5076570;28;20206;-82
2023/10/01 01:54:34;;;;;;;4.40;3.87;;;;;;;;;;5075818;28;20290;-83
2023/10/01 01:57:02;;;;;;;3.40;3.10;;;;;;;;;;5076245;28;20619;-83
2023/10/01 01:59:31;;;;;;;4.03;3.47;;;;;;;;;;5075758;28;20233;-83
2023/10/01 02:01:59;;;;;;;4.23;3.50;;;;;;;;;;5076110;28;20736;-82
2023/10/01 02:04:26;;;;;;;4.27;3.33;;;;;;;;;;5093946;28;20290;-83
2023/10/01 02:06:56;;;;;;;3.97;3.03;;;;;;;;;;5096244;28;20201;-83
2023/10/01 02:09:25;;;;;;;4.17;3.47;;;;;;;;;;5095666;28;20243;-83
2023/10/01 02:11:53;;;;;;;6.60;3.93;;;;;;;;;;5096639;28;20185;-83
2023/10/01 02:14:35;;;;;;;3.83;3.23;;;;;;;;;;5077859;28;20229;-82
2023/10/01 02:17:13;;;;;;;5.70;3.33;;;;;;;;;;5076349;28;20194;-83
2023/10/01 02:19:39;;;;;;;3.50;3.20;;;;;;;;;;5075339;28;20729;-83
2023/10/01 02:22:08;;;;;;;3.93;3.13;;;;;;;;;;5075921;28;20201;-83
2023/10/01 02:24:44;;;;;;;4.23;2.93;;;;;;;;;;5075419;28;20221;-83
2023/10/01 02:27:13;;;;;;;4.10;3.20;;;;;;;;;;5076187;28;20219;-83
2023/10/01 02:30:11;;;;;;;4.10;3.23;;;;;;;;;;5075006;28;20248;-83
2023/10/01 02:32:34;;;;;;;8.70;3.43;;;;;;;;;;5075465;28;20220;-83
2023/10/01 02:35:03;;;;;;;3.30;3.00;;;;;;;;;;5075216;28;20237;-83
2023/10/01 02:37:48;;;;;;;3.57;3.17;;;;;;;;;;5075115;28;20259;-83
2023/10/01 02:40:18;;;;;;;5.87;3.53;;;;;;;;;;5074721;28;20240;-83
2023/10/01 02:42:49;;;;;;;5.13;3.37;;;;;;;;;;5076406;28;20288;-83
2023/10/01 02:45:30;;;;;;;4.47;3.60;;;;;;;;;;5074754;28;20244;-83
2023/10/01 02:50:38;;;;;;;3.77;3.40;;;;;;;;;;5074256;28;20336;-83
2023/10/01 02:53:04;;;;;;;3.93;3.17;;;;;;;;;;5095384;28;20204;-83
2023/10/01 02:55:31;;;;;;;3.13;2.90;;;;;;;;;;5094787;28;20725;-82
2023/10/01 02:58:17;;;;;;;3.97;3.10;;;;;;;;;;5095790;28;20203;-83
2023/10/01 03:00:44;;;;;;;6.23;3.43;;;;;;;;;;5094860;28;20233;-83
2023/10/01 03:03:14;;;;;;;3.57;3.17;;;;;;;;;;5075320;28;20221;-83
2023/10/01 03:05:43;;;;;;;3.77;3.20;;;;;;;;;;5074486;28;20734;-83
2023/10/01 03:08:25;;;;;;;4.43;3.70;;;;;;;;;;5086469;28;20196;-83
2023/10/01 03:10:53;;;;;;;4.50;3.27;;;;;;;;;;5094499;28;20228;-83
2023/10/01 03:13:30;;;;;;;4.50;3.47;;;;;;;;;;5095408;28;20208;-83
2023/10/01 03:18:39;;;;;;;3.40;3.10;;;;;;;;;;5093332;28;20597;-83
2023/10/01 03:21:17;;;;;;;6.73;3.60;;;;;;;;;;5094390;28;20208;-83
2023/10/01 03:23:53;;;;;;;5.30;3.70;;;;;;;;;;5095000;28;20231;-83
2023/10/01 03:26:25;;;;;;;4.07;3.53;;;;;;;;;;5094444;28;20204;-83
2023/10/01 03:31:46;;;;;;;3.80;3.50;;;;;;;;;;5058840;28;20200;-83
2023/10/01 03:34:28;;;;;;;4.80;3.87;;;;;;;;;;5074435;28;20240;-83
2023/10/01 03:36:58;;;;;;;6.23;3.73;;;;;;;;;;5074615;28;20224;-83
2023/10/01 03:39:26;;;;;;;4.33;3.57;;;;;;;;;;5073797;28;20236;-83
2023/10/01 03:42:10;;;;;;;5.97;4.10;;;;;;;;;;5074426;28;20202;-82
2023/10/01 03:47:23;;;;;;;3.50;3.20;;;;;;;;;;5073353;28;20289;-83
2023/10/01 03:49:54;;;;;;;5.00;3.23;;;;;;;;;;5072815;28;20237;-83
2023/10/01 03:52:21;;;;;;;4.47;3.47;;;;;;;;;;5075147;28;20204;-83
2023/10/01 03:55:00;;;;;;;4.43;3.27;;;;;;;;;;5073592;28;20343;-83
2023/10/01 03:57:29;;;;;;;5.80;3.53;;;;;;;;;;5074045;28;20287;-83
2023/10/01 04:00:08;;;;;;;3.40;3.10;;;;;;;;;;5073314;28;20233;-83
2023/10/01 04:02:46;;;;;;;4.83;3.27;;;;;;;;;;5086712;28;20200;-83
2023/10/01 04:05:22;;;;;;;6.17;3.00;;;;;;;;;;5093548;28;20614;-82
2023/10/01 04:07:49;;;;;;;6.50;3.60;;;;;;;;;;5094505;28;20204;-83
2023/10/01 04:10:21;;;;;;;11.30;3.63;;;;;;;;;;5093330;28;20233;-83
2023/10/01 04:12:54;;;;;;;3.53;3.20;;;;;;;;;;5093942;28;20258;-83
2023/10/01 04:15:28;;;;;;;3.67;3.33;;;;;;;;;;5093647;28;20237;-83
2023/10/01 04:18:19;;;;;;;4.60;3.10;;;;;;;;;;5094160;28;20242;-83
2023/10/01 04:20:48;;;;;;;3.80;3.20;;;;;;;;;;5093371;28;20610;-82
2023/10/01 04:23:23;;;;;;;6.97;3.60;;;;;;;;;;5093190;28;20217;-83
2023/10/01 04:25:51;;;;;;;5.57;3.47;;;;;;;;;;5093866;28;20236;-83
2023/10/01 04:28:19;;;;;;;6.30;3.33;;;;;;;;;;5094123;28;20262;-83
2023/10/01 04:30:51;;;;;;;6.23;2.97;;;;;;;;;;5093127;28;20247;-83
2023/10/01 04:33:19;;;;;;;3.30;3.00;;;;;;;;;;5076797;28;20217;-83
2023/10/01 04:35:55;;;;;;;6.23;3.40;;;;;;;;;;5073095;28;20245;-83
2023/10/01 04:38:22;;;;;;;4.67;3.33;;;;;;;;;;5073712;28;20296;-83
2023/10/01 04:40:50;;;;;;;5.73;3.73;;;;;;;;;;5072900;28;20229;-83
2023/10/01 04:43:19;;;;;;;5.90;3.77;;;;;;;;;;5090060;28;20223;-82
2023/10/01 04:45:52;;;;;;;4.13;3.20;;;;;;;;;;5093137;28;20263;-82
2023/10/01 04:48:22;;;;;;;4.50;3.23;;;;;;;;;;5093868;28;20192;-82
2023/10/01 04:50:50;;;;;;;7.00;3.63;;;;;;;;;;5092888;28;20239;-82
2023/10/01 04:53:20;;;;;;;4.90;3.77;;;;;;;;;;5089035;28;20232;-82
2023/10/01 04:55:57;;;;;;;5.73;3.27;;;;;;;;;;5092939;28;20652;-83
2023/10/01 04:58:26;;;;;;;3.83;3.47;;;;;;;;;;5093976;28;20201;-83
2023/10/01 05:00:56;;;;;;;4.60;3.07;;;;;;;;;;5094920;28;20223;-82
2023/10/01 05:03:38;;;;;;;4.40;3.20;;;;;;;;;;5096776;28;20284;-82
2023/10/01 05:06:06;;;;;;;4.43;3.43;;;;;;;;;;5097569;28;20208;-82
2023/10/01 05:08:38;;;;;;;3.50;2.67;;;;;;;;;;5096964;28;20211;-83
2023/10/01 05:11:10;;;;;;;3.67;3.30;;;;;;;;;;5096896;28;20216;-82
2023/10/01 05:13:39;;;;;;;4.43;3.17;;;;;;;;;;5094948;28;20655;-83
2023/10/01 05:16:08;;;;;;;5.23;4.10;;;;;;;;;;5097355;28;20231;-82
2023/10/01 05:18:35;;;;;;;4.27;3.20;;;;;;;;;;5096836;28;20205;-82
2023/10/01 05:21:04;;;;;;;5.90;3.67;;;;;;;;;;5094397;28;20201;-83
2023/10/01 05:23:30;;;;;;;5.70;3.53;;;;;;;;;;5075414;28;20278;-83
2023/10/01 05:25:57;;;;;;;4.93;3.50;;;;;;;;;;5076732;28;20208;-83
2023/10/01 05:28:31;;;;;;;4.83;3.17;;;;;;;;;;5076931;28;20205;-82
2023/10/01 05:30:58;;;;;;;3.23;2.93;;;;;;;;;;5076326;28;20253;-82
2023/10/01 05:33:27;;;;;;;4.23;3.83;;;;;;;;;;5076576;28;20214;-82
2023/10/01 05:35:57;;;;;;;4.43;3.37;;;;;;;;;;5076087;28;20274;-83
2023/10/01 05:38:26;;;;;;;8.97;3.77;;;;;;;;;;5076493;28;20559;-83
2023/10/01 05:40:54;;;;;;;4.33;3.50;;;;;;;;;;5089372;28;20229;-82
2023/10/01 05:43:27;;;;;;;3.73;3.33;;;;;;;;;;5096608;28;20714;-83
2023/10/01 05:45:54;;;;;;;3.23;2.93;;;;;;;;;;5096337;28;20658;-82
2023/10/01 05:48:23;;;;;;;5.73;3.07;;;;;;;;;;5096064;28;20211;-82
2023/10/01 05:50:52;;;;;;;4.27;3.23;;;;;;;;;;5095775;28;20623;-83
2023/10/01 05:53:19;;;;;;;3.60;3.10;;;;;;;;;;5096457;28;20232;-83
2023/10/01 05:55:46;;;;;;;6.03;3.33;;;;;;;;;;5096071;28;20239;-83
2023/10/01 05:58:21;;;;;;;6.30;3.50;;;;;;;;;;5096502;28;20208;-83
2023/10/01 06:00:56;;;;;;;3.53;3.23;;;;;;;;;;5089774;28;20262;-83
2023/10/01 06:03:24;;;;;;;4.37;3.67;;;;;;;;;;5089357;28;20224;-83
2023/10/01 06:05:57;;;;;;;5.70;3.37;;;;;;;;;;5096054;28;20229;-85
2023/10/01 06:08:25;;;;;;;5.03;3.57;;;;;;;;;;5097054;28;20216;-86
2023/10/01 06:11:06;;;;;;;4.07;3.40;;;;;;;;;;5095922;28;20228;-85
2023/10/01 06:13:35;;;;;;;6.20;3.40;;;;;;;;;;5095264;28;20232;-86
2023/10/01 06:16:11;;;;;;;3.53;3.20;;;;;;;;;;5081616;28;20282;-85
2023/10/01 06:18:42;;;;;;;4.87;3.50;;;;;;;;;;5095253;28;20220;-86
2023/10/01 06:21:10;;;;;;;5.87;3.40;;;;;;;;;;5096356;28;20204;-84
2023/10/01 06:23:49;;;;;;;6.13;3.67;;;;;;;;;;5095626;28;20224;-84
2023/10/01 06:26:17;;;;;;;5.33;3.60;;;;;;;;;;5096368;28;20247;-84
2023/10/01 06:28:44;;;;;;;4.63;3.10;;;;;;;;;;5095872;28;20674;-84
2023/10/01 06:31:11;;;;;;;5.90;3.40;;;;;;;;;;5096074;28;20231;-84
2023/10/01 06:33:38;;;;;;;7.57;3.77;;;;;;;;;;5095815;28;20263;-84
2023/10/01 06:38:48;;;;;;;7.10;3.83;;;;;;;;;;5073063;28;20216;-84
2023/10/01 06:41:16;;;;;;;7.80;4.50;;;;;;;;;;5076988;28;20206;-84
2023/10/01 06:43:49;;;;;;;5.33;4.20;;;;;;;;;;5095398;28;20229;-84
2023/10/01 06:46:21;;;;;;;5.03;4.27;;;;;;;;;;5089900;28;20201;-84
2023/10/01 06:48:49;;;;;;;9.97;4.27;;;;;;;;;;5074912;28;20260;-84
2023/10/01 06:51:19;;;;;;;8.70;4.20;;;;;;;;;;5075261;28;20229;-84
2023/10/01 06:53:48;;;;;;;6.87;4.50;;;;;;;;;;5074924;28;20232;-84
2023/10/01 06:56:17;;;;;;;7.67;4.43;;;;;;;;;;5075413;28;20202;-84
2023/10/01 06:59:11;;;;;;;6.27;4.40;;;;;;;;;;5074950;28;20219;-84
2023/10/01 07:01:35;;;;;;;7.57;4.43;;;;;;;;;;5075034;28;20202;-84
2023/10/01 07:04:02;;;;;;;10.07;4.80;;;;;;;;;;5074608;28;20225;-84
2023/10/01 07:06:29;;;;;;;7.30;4.67;;;;;;;;;;5075125;28;20197;-84
2023/10/01 07:09:00;;;;;;;8.57;5.60;;;;;;;;;;5074577;28;20233;-84
2023/10/01 07:11:28;;;;;;;13.07;5.47;;;;;;;;;;5079223;28;20224;-84
2023/10/01 07:13:56;;;;;;;10.13;6.17;;;;;;;;;;5095022;28;20232;-84
2023/10/01 07:16:36;;;;;;;8.67;5.70;;;;;;;;;;5094478;28;20211;-84
2023/10/01 07:19:05;;;;;;;11.37;6.23;;;;;;;;;;5081668;28;20683;-83
2023/10/01 07:21:33;;;;;;;10.30;6.40;;;;;;;;;;5074409;28;20207;-84
2023/10/01 07:24:01;;;;;;;11.40;5.73;;;;;;;;;;5072032;28;20243;-84
2023/10/01 07:26:28;;;;;;;10.93;6.17;;;;;;;;;;5074032;28;20263;-84
2023/10/01 07:28:56;;;;;;;13.43;7.03;;;;;;;;;;5075004;28;20252;-84
2023/10/01 07:31:24;;;;;;;9.73;6.33;;;;;;;;;;5074291;28;20256;-84
2023/10/01 07:33:53;;;;;;;11.30;5.93;;;;;;;;;;5074053;28;20629;-84
2023/10/01 07:36:20;;;;;;;12.97;7.40;;;;;;;;;;5074766;28;20239;-84
2023/10/01 07:38:52;;;;;;;14.33;7.47;;;;;;;;;;5074449;28;20245;-85
2023/10/01 07:41:23;;;;;;;13.63;7.43;;;;;;;;;;5074550;28;20201;-85
2023/10/01 07:43:53;;;;;;;15.40;7.33;;;;;;;;;;5074428;28;20241;-85
2023/10/01 07:46:21;;;;;;;12.93;7.47;;;;;;;;;;5074884;28;20205;-85
2023/10/01 07:48:49;;;;;;;11.20;6.80;;;;;;;;;;5073982;28;20241;-84
2023/10/01 07:51:26;;;;;;;13.73;7.53;;;;;;;;;;5074428;28;20319;-84
2023/10/01 07:53:53;;;;;;;14.87;8.23;;;;;;;;;;5074291;28;20233;-86
2023/10/01 07:56:22;;;;;;;12.10;7.73;;;;;;;;;;5074643;28;20587;-87
2023/10/01 07:58:56;;;;;;;13.93;7.83;;;;;;;;;;5074352;28;20255;-87
2023/10/01 08:01:36;;;;;;;13.57;7.87;;;;;;;;;;5074647;28;20203;-87
2023/10/01 08:04:06;;;;;;;16.43;8.63;;;;;;;;;;5074045;28;20267;-87
2023/10/01 08:06:41;;;;;;;17.13;8.70;;;;;;;;;;5079300;28;20204;-86
2023/10/01 08:09:12;;;;;;;15.57;8.50;;;;;;;;;;5087185;28;20237;-87
2023/10/01 08:14:33;;;;;;;15.27;6.93;;;;;;;;;;5058154;28;20757;-87
2023/10/01 08:17:00;;;;;;;9.93;6.90;;;;;;;;;;5075136;28;20288;-87
2023/10/01 08:19:41;;;;;;;11.30;6.70;;;;;;;;;;5074166;28;20327;-87
2023/10/01 08:22:13;;;;;;;10.57;5.70;;;;;;;;;;5074773;28;20271;-87
2023/10/01 08:24:45;;;;;;;9.87;6.03;;;;;;;;;;5074027;28;20252;-88
2023/10/01 08:27:14;;;;;;;8.63;5.20;;;;;;;;;;5074805;28;20726;-87
2023/10/01 08:32:38;;;;;;;9.67;6.10;;;;;;;;;;5096333;28;20240;-87
2023/10/01 08:35:06;;;;;;;7.97;5.57;;;;;;;;;;5093572;28;20297;-87
2023/10/01 08:37:37;;;;;;;9.43;5.27;;;;;;;;;;5094578;28;20204;-88
2023/10/01 08:40:04;;;;;;;10.60;5.53;;;;;;;;;;5093525;28;20228;-87
2023/10/01 08:42:33;;;;;;;8.60;5.23;;;;;;;;;;5074465;28;20222;-88
2023/10/01 08:45:04;;;;;;;5.77;5.03;;;;;;;;;;5074586;28;20229;-87
2023/10/01 08:47:31;;;;;;;6.83;4.93;;;;;;;;;;5094614;28;20700;-85
2023/10/01 08:50:15;;;;;;;7.40;5.13;;;;;;;;;;5093227;28;20323;-86
2023/10/01 08:52:52;;;;;;;7.00;5.10;;;;;;;;;;5077274;28;20217;-86
2023/10/01 08:55:24;;;;;;;6.87;4.50;;;;;;;;;;5072322;28;20609;-86
2023/10/01 08:57:53;;;;;;;8.10;4.77;;;;;;;;;;5073906;28;20255;-85
2023/10/01 09:00:24;;;;;;;8.17;4.93;;;;;;;;;;5072299;28;20229;-86
2023/10/01 09:02:55;;;;;;;10.33;4.80;;;;;;;;;;5073811;28;20186;-87
2023/10/01 09:05:27;;;;;;;8.23;5.40;;;;;;;;;;5073120;28;20249;-86
2023/10/01 09:10:39;;;;;;;10.70;4.87;;;;;;;;;;5071981;28;20283;-86
2023/10/01 09:13:20;;;;;;;7.43;5.20;;;;;;;;;;5077378;28;20192;-86
2023/10/01 09:15:53;;;;;;;8.30;5.40;;;;;;;;;;5093002;28;20232;-86
2023/10/01 09:18:22;;;;;;;6.93;4.67;;;;;;;;;;5094204;28;20208;-86
2023/10/01 09:23:54;;;;;;;8.77;5.35;;;;;;;;;;5093083;28;20665;-87
2023/10/01 09:26:37;;;;;;;8.25;5.03;;;;;;;;;;5093894;28;20262;-86
2023/10/01 09:29:13;;;;;;;8.73;5.32;;;;;;;;;;5093339;28;20698;-86
2023/10/01 09:31:52;;;;;;;10.27;5.32;;;;;;;;;;5094107;28;20212;-87
2023/10/01 09:34:31;;;;;;;10.77;5.43;;;;;;;;;;5092873;28;20274;-87
2023/10/01 09:36:58;;;;;;;7.80;4.63;;;;;;;;;;5093984;28;20193;-87
2023/10/01 09:39:36;;;;;;;7.10;5.35;;;;;;;;;;5093132;28;20243;-87
2023/10/01 09:42:22;;;;;;;6.57;4.60;;;;;;;;;;5094113;28;20251;-87
2023/10/01 09:44:52;;;;;;;7.60;5.05;;;;;;;;;;5092035;28;20240;-85
2023/10/01 09:47:23;;;;;;;10.52;5.13;;;;;;;;;;5094274;28;20585;-86
2023/10/01 09:49:52;;;;;;;8.60;4.80;;;;;;;;;;5096862;28;20235;-86
2023/10/01 09:52:27;;;;;;;7.38;5.20;;;;;;;;;;5097062;28;20261;-84
2023/10/01 09:54:57;;;;;;;9.68;5.20;;;;;;;;;;5096239;28;20651;-85
2023/10/01 09:57:24;;;;;;;10.05;5.03;;;;;;;;;;5096677;28;20641;-85
2023/10/01 10:00:14;;;;;;;9.07;5.00;;;;;;;;;;5081820;28;20237;-86
2023/10/01 10:02:51;;;;;;;7.57;4.90;;;;;;;;;;5095809;28;20200;-86
2023/10/01 10:05:24;;;;;;;6.88;4.70;;;;;;;;;;5095929;28;20315;-87
2023/10/01 10:07:51;;;;;;;8.18;5.03;;;;;;;;;;5097213;28;20193;-88
2023/10/01 10:10:24;;;;;;;7.70;4.13;;;;;;;;;;5096301;28;20319;-87
2023/10/01 10:12:53;;;;;;;7.22;4.43;;;;;;;;;;5113496;28;20216;-87
2023/10/01 10:15:48;;;;;;;6.40;4.03;;;;;;;;;;5116468;28;20639;-87
2023/10/01 10:18:16;;;;;;;8.82;4.72;;;;;;;;;;5115268;28;20260;-87
2023/10/01 10:20:57;;;;;;;8.43;4.88;;;;;;;;;;5115413;28;20236;-87
2023/10/01 10:23:30;;;;;;;7.10;3.97;;;;;;;;;;5119750;28;20231;-88
2023/10/01 10:26:13;;;;;;;6.40;4.05;;;;;;;;;;5122029;28;20284;-88
2023/10/01 10:28:53;;;;;;;5.85;3.75;;;;;;;;;;5123453;28;20192;-89
2023/10/01 10:31:32;;;;;;;7.63;4.05;;;;;;;;;;5119663;28;20216;-89
2023/10/01 10:34:36;;;;;;;5.68;3.60;;;;;;;;;;5125110;28;20228;-90
2023/10/01 10:37:06;;;;;;;5.72;3.65;;;;;;;;;;5119974;28;20243;-92
2023/10/01 10:39:53;;;;;;;6.80;3.90;;;;;;;;;;5119444;28;20227;-91
2023/10/01 10:42:29;;;;;;;7.00;3.78;;;;;;;;;;5119253;28;20215;-89
2023/10/01 10:45:21;;;;;;;8.73;3.65;;;;;;;;;;5118229;28;20227;-89
2023/10/01 10:47:59;;;;;;;5.65;3.72;;;;;;;;;;5117856;28;20188;-90
2023/10/01 10:50:46;;;;;;;7.05;3.60;;;;;;;;;;5117139;28;20259;-88
2023/10/01 10:53:17;;;;;;;6.00;3.80;;;;;;;;;;5117020;28;20232;-88
2023/10/01 10:55:53;;;;;;;6.47;3.95;;;;;;;;;;5116585;28;20255;-88
2023/10/01 10:58:20;;;;;;;6.97;3.92;;;;;;;;;;5117219;28;20234;-87
2023/10/01 11:00:48;;;;;;;5.47;3.33;;;;;;;;;;5117137;28;20705;-89
2023/10/01 11:03:17;;;;;;;6.60;3.55;;;;;;;;;;5117538;28;20222;-89
2023/10/01 11:05:50;;;;;;;7.28;4.30;;;;;;;;;;5100452;28;20569;-90
2023/10/01 11:08:25;;;;;;;8.70;4.07;;;;;;;;;;5086758;28;20223;-90
2023/10/01 11:10:55;;;;;;;6.72;4.22;;;;;;;;;;5076718;28;20212;-89
2023/10/01 11:13:37;;;;;;;5.30;4.00;;;;;;;;;;5091954;28;20250;-90
2023/10/01 11:16:14;;;;;;;6.18;3.92;;;;;;;;;;5092330;28;20244;-89
2023/10/01 11:18:44;;;;;;;6.32;4.20;;;;;;;;;;5093104;28;20659;-90
2023/10/01 11:21:20;;;;;;;6.95;4.20;;;;;;;;;;5076038;28;20687;-89
2023/10/01 11:23:47;;;;;;;7.38;4.22;;;;;;;;;;5075511;28;21021;-89
2023/10/01 11:26:26;;;;;;;7.00;3.85;;;;;;;;;;5076196;28;20216;-88
2023/10/01 11:28:53;;;;;;;6.97;3.97;;;;;;;;;;5075525;28;20237;-88
2023/10/01 11:31:24;;;;;;;5.70;3.88;;;;;;;;;;5075781;28;20233;-89
2023/10/01 11:34:21;;;;;;;7.22;3.92;;;;;;;;;;5084285;28;20232;-90
2023/10/01 11:36:56;;;;;;;5.47;3.67;;;;;;;;;;5096000;28;20208;-89
2023/10/01 11:39:38;;;;;;;7.05;3.97;;;;;;;;;;5091450;28;20281;-89
2023/10/01 11:42:19;;;;;;;5.55;3.42;;;;;;;;;;5095404;28;20205;-90
2023/10/01 11:44:52;;;;;;;10.07;4.70;;;;;;;;;;5095858;28;20224;-89
2023/10/01 11:47:31;;;;;;;6.15;3.85;;;;;;;;;;5096254;28;20204;-89
2023/10/01 11:50:07;;;;;;;7.60;4.18;;;;;;;;;;5095536;28;20334;-88
2023/10/01 11:52:36;;;;;;;7.47;3.83;;;;;;;;;;5095871;28;20628;-89
2023/10/01 11:55:18;;;;;;;7.55;3.92;;;;;;;;;;5095083;28;20240;-90
2023/10/01 11:57:52;;;;;;;6.45;3.78;;;;;;;;;;5096161;28;20188;-90
2023/10/01 12:00:52;;;;;;;5.47;3.55;;;;;;;;;;5096216;28;20285;-89
2023/10/01 12:03:10;;;;;;;7.10;3.85;;;;;;;;;;5096663;28;20600;-90
2023/10/01 12:05:41;;;;;;;7.28;4.25;;;;;;;;;;5095180;28;20232;-89
2023/10/01 12:08:18;;;;;;;5.70;3.92;;;;;;;;;;5095866;28;20192;-90
2023/10/01 12:10:45;;;;;;;6.18;4.20;;;;;;;;;;5094517;28;20265;-89
2023/10/01 12:13:13;;;;;;;6.97;3.97;;;;;;;;;;5095957;28;20228;-89
2023/10/01 12:15:51;;;;;;;5.88;4.13;;;;;;;;;;5096924;28;20256;-90
2023/10/01 12:18:18;;;;;;;6.22;3.72;;;;;;;;;;5095405;28;20207;-90
2023/10/01 12:20:50;;;;;;;6.13;3.80;;;;;;;;;;5094733;28;20315;-90
2023/10/01 12:23:21;;;;;;;5.82;3.80;;;;;;;;;;5095309;28;20638;-89
2023/10/01 12:25:52;;;;;;;6.35;3.85;;;;;;;;;;5094810;28;20770;-89
2023/10/01 12:28:24;;;;;;;6.95;4.00;;;;;;;;;;5095474;28;20211;-90
2023/10/01 12:30:58;;;;;;;7.57;4.10;;;;;;;;;;5094554;28;20671;-89
2023/10/01 12:33:25;;;;;;;9.45;4.22;;;;;;;;;;5095387;28;20232;-89
2023/10/01 12:35:53;;;;;;;6.97;4.05;;;;;;;;;;5095162;28;20571;-88
2023/10/01 12:38:23;;;;;;;7.22;4.00;;;;;;;;;;5095772;28;20205;-88
2023/10/01 12:40:54;;;;;;;6.45;4.38;;;;;;;;;;5094955;28;20860;-88
2023/10/01 12:43:37;;;;;;;7.10;3.90;;;;;;;;;;5095079;28;20231;-92
2023/10/01 12:46:08;;;;;;;5.68;3.65;;;;;;;;;;5094962;28;20247;-91
2023/10/01 12:48:35;;;;;;;8.43;4.45;;;;;;;;;;5095185;28;20261;-92
2023/10/01 12:51:03;;;;;;;6.30;3.95;;;;;;;;;;5096066;28;20654;-92
2023/10/01 12:53:34;;;;;;;7.43;4.43;;;;;;;;;;5095803;28;20239;-92
2023/10/01 12:56:02;;;;;;;7.22;4.38;;;;;;;;;;5096521;28;20189;-92
2023/10/01 12:58:39;;;;;;;6.72;4.20;;;;;;;;;;5095487;28;20231;-91
2023/10/01 13:01:07;;;;;;;6.30;4.38;;;;;;;;;;5096107;28;20196;-91
2023/10/01 13:03:42;;;;;;;6.60;4.32;;;;;;;;;;5099743;28;20327;-91
2023/10/01 13:06:12;;;;;;;8.25;4.28;;;;;;;;;;5098430;28;20200;-92
2023/10/01 13:08:42;;;;;;;8.52;4.75;;;;;;;;;;5096288;28;20199;-89
2023/10/01 13:11:12;;;;;;;7.85;4.72;;;;;;;;;;5095204;28;20261;-92
2023/10/01 13:13:42;;;;;;;9.32;4.30;;;;;;;;;;5093816;28;20271;-92
2023/10/01 13:16:16;;;;;;;7.75;4.65;;;;;;;;;;5095921;28;20224;-93
2023/10/01 13:18:43;;;;;;;7.20;4.03;;;;;;;;;;5095762;28;20196;-91
2023/10/01 13:21:11;;;;;;;8.38;5.03;;;;;;;;;;5099133;28;20204;-91
2023/10/01 13:23:44;;;;;;;8.25;4.68;;;;;;;;;;5102989;28;20246;-91
2023/10/01 13:26:24;;;;;;;7.75;4.68;;;;;;;;;;5099867;28;20192;-91
2023/10/01 13:28:53;;;;;;;9.05;5.05;;;;;;;;;;5098823;28;20232;-91
2023/10/01 13:31:40;;;;;;;9.65;5.65;;;;;;;;;;5098890;28;20211;-90
2023/10/01 13:34:21;;;;;;;8.02;5.00;;;;;;;;;;5100156;28;20263;-89
2023/10/01 13:36:51;;;;;;;7.88;5.15;;;;;;;;;;5099994;28;20205;-89
2023/10/01 13:39:25;;;;;;;10.18;5.22;;;;;;;;;;5100395;28;20266;-90
2023/10/01 14:09:48;;;;;;;10.70;5.07;;;;;;;;;;5081199;28;20231;-84
2023/10/01 14:12:41;;;;;;;7.57;4.75;;;;;;;;;;5094833;28;20231;-85
2023/10/01 14:15:05;;;;;;;8.50;4.65;;;;;;;;;;5093746;28;20297;-85
2023/10/01 14:17:32;;;;;;;7.68;4.40;;;;;;;;;;5094363;28;20232;-84
2023/10/01 14:19:59;;;;;;;10.45;5.25;;;;;;;;;;5093954;28;20239;-84
2023/10/01 14:22:29;;;;;;;7.90;5.20;;;;;;;;;;5054370;28;20213;-85
2023/10/01 14:24:56;;;;;;;9.00;5.38;;;;;;;;;;5085591;28;20311;-85
2023/10/01 14:27:29;;;;;;;8.15;5.25;;;;;;;;;;5094047;28;20197;-84
2023/10/01 14:30:23;;;;;;;9.57;4.90;;;;;;;;;;5093499;28;20308;-85
2023/10/01 14:32:51;;;;;;;9.30;5.00;;;;;;;;;;5083875;28;20224;-85
2023/10/01 14:35:19;;;;;;;8.07;4.70;;;;;;;;;;5072458;28;20295;-85
2023/10/01 14:37:54;;;;;;;9.68;5.30;;;;;;;;;;5088816;28;20233;-86
2023/10/01 14:40:23;;;;;;;8.05;5.10;;;;;;;;;;5086241;28;20297;-86
2023/10/01 14:42:58;;;;;;;7.32;4.85;;;;;;;;;;5089331;28;20201;-87
2023/10/01 14:45:32;;;;;;;6.55;4.30;;;;;;;;;;5087016;28;20292;-84
2023/10/01 14:48:06;;;;;;;8.63;4.55;;;;;;;;;;5093805;28;20249;-85
2023/10/01 14:50:39;;;;;;;7.72;4.32;;;;;;;;;;5078442;28;20229;-84
2023/10/01 14:53:07;;;;;;;6.30;4.15;;;;;;;;;;5093613;28;20213;-84
2023/10/01 14:55:40;;;;;;;7.53;4.47;;;;;;;;;;5092905;28;20239;-83
2023/10/01 14:58:12;;;;;;;8.70;5.20;;;;;;;;;;5094158;28;20227;-86
2023/10/01 15:00:49;;;;;;;8.98;5.00;;;;;;;;;;5082400;28;20225;-86
2023/10/01 15:03:18;;;;;;;9.88;5.47;;;;;;;;;;5094447;28;20208;-85
2023/10/01 15:05:45;;;;;;;9.45;5.20;;;;;;;;;;5093042;28;20228;-84
2023/10/01 15:08:12;;;;;;;7.25;4.68;;;;;;;;;;5093291;28;20748;-84
2023/10/01 15:10:49;;;;;;;9.70;5.65;;;;;;;;;;5092433;28;20224;-83
2023/10/01 15:13:16;;;;;;;9.55;5.45;;;;;;;;;;5093447;28;20277;-84
2023/10/01 15:15:44;;;;;;;7.38;4.70;;;;;;;;;;5092515;28;20236;-84
2023/10/01 15:18:17;;;;;;;8.85;5.38;;;;;;;;;;5093055;28;20228;-83
2023/10/01 15:20:49;;;;;;;10.98;5.72;;;;;;;;;;5092654;28;20307;-84
2023/10/01 15:23:17;;;;;;;9.23;5.15;;;;;;;;;;5093388;28;20204;-85
2023/10/01 15:25:44;;;;;;;11.20;5.30;;;;;;;;;;5092788;28;20624;-87
2023/10/01 15:28:15;;;;;;;8.95;5.13;;;;;;;;;;5092881;28;20200;-84
2023/10/01 15:30:44;;;;;;;7.88;4.95;;;;;;;;;;5092305;28;20277;-83
2023/10/01 15:33:16;;;;;;;9.60;5.45;;;;;;;;;;5094010;28;20702;-84
2023/10/01 15:35:48;;;;;;;8.68;5.25;;;;;;;;;;5093488;28;20767;-84
2023/10/01 15:38:26;;;;;;;8.35;5.32;;;;;;;;;;5093183;28;20312;-84
2023/10/01 15:40:54;;;;;;;10.10;4.63;;;;;;;;;;5092738;28;20254;-83
2023/10/01 15:43:22;;;;;;;9.98;5.20;;;;;;;;;;5093157;28;20204;-83
2023/10/01 15:45:49;;;;;;;10.25;5.35;;;;;;;;;;5092113;28;20240;-84
2023/10/01 15:48:17;;;;;;;9.80;5.25;;;;;;;;;;5093136;28;20216;-83
2023/10/01 15:50:46;;;;;;;8.85;5.07;;;;;;;;;;5092303;28;20220;-83
2023/10/01 15:53:21;;;;;;;9.38;4.90;;;;;;;;;;5092483;28;20714;-83
2023/10/01 15:56:02;;;;;;;9.52;5.47;;;;;;;;;;5092566;28;20232;-84
2023/10/01 15:58:29;;;;;;;8.48;4.97;;;;;;;;;;5092391;28;20204;-84
2023/10/01 16:00:59;;;;;;;9.75;5.57;;;;;;;;;;5093150;28;20211;-83